createdAt,value
2018-04-10T00:01:17.803Z,5.27
2018-04-10T00:03:44.852Z,5.73
2018-04-10T00:06:12.311Z,5.67
2018-04-10T00:08:40.592Z,5.80
2018-04-10T00:11:08.762Z,5.50
2018-04-10T00:13:35.708Z,5.37
2018-04-10T00:16:02.664Z,5.70
2018-04-10T00:18:29.706Z,5.20
2018-04-10T00:20:56.654Z,5.57
2018-04-10T00:23:23.533Z,6.47
2018-04-10T00:25:50.541Z,6.10
2018-04-10T00:28:17.590Z,5.07
2018-04-10T00:30:44.647Z,5.27
2018-04-10T00:33:11.686Z,5.37
2018-04-10T00:35:39.760Z,5.00
2018-04-10T00:38:06.712Z,6.03
2018-04-10T00:40:33.753Z,4.90
2018-04-10T00:43:02.033Z,5.50
2018-04-10T00:45:29.083Z,5.27
2018-04-10T00:47:56.026Z,5.40
2018-04-10T00:50:22.972Z,5.10
2018-04-10T00:52:50.635Z,5.30
2018-04-10T00:55:18.809Z,5.00
2018-04-10T00:57:46.068Z,5.27
2018-04-10T01:00:13.012Z,5.37
2018-04-10T01:02:39.956Z,5.20
2018-04-10T01:05:07.004Z,5.70
2018-04-10T01:07:34.058Z,5.30
2018-04-10T01:10:00.999Z,5.10
2018-04-10T01:12:28.149Z,5.23
2018-04-10T01:14:56.138Z,5.80
2018-04-10T01:17:23.171Z,5.27
2018-04-10T01:19:50.217Z,5.43
2018-04-10T01:22:18.333Z,5.40
2018-04-10T01:24:45.344Z,5.83
2018-04-10T01:27:12.389Z,5.63
2018-04-10T01:29:41.021Z,5.17
2018-04-10T01:32:08.023Z,4.83
2018-04-10T01:34:34.966Z,5.10
2018-04-10T01:37:02.023Z,5.40
2018-04-10T01:39:29.005Z,5.30
2018-04-10T01:41:56.013Z,5.20
2018-04-10T01:44:23.364Z,5.47
2018-04-10T01:46:51.028Z,5.67
2018-04-10T01:49:18.082Z,5.33
2018-04-10T01:51:45.022Z,5.50
2018-04-10T01:54:12.077Z,5.87
2018-04-10T01:56:43.547Z,5.60
2018-04-10T01:59:10.570Z,5.80
2018-04-10T02:01:37.620Z,6.00
2018-04-10T02:04:04.673Z,5.70
2018-04-10T02:06:31.717Z,5.50
2018-04-10T02:08:58.705Z,5.60
2018-04-10T02:11:25.711Z,6.27
2018-04-10T02:13:53.893Z,5.53
2018-04-10T02:16:21.139Z,5.90
2018-04-10T02:18:48.198Z,5.97
2018-04-10T02:21:15.135Z,6.07
2018-04-10T02:23:43.249Z,6.20
2018-04-10T02:26:10.262Z,5.83
2018-04-10T02:28:37.305Z,6.93
2018-04-10T02:31:04.354Z,7.70
2018-04-10T02:33:31.408Z,6.43
2018-04-10T02:35:58.349Z,6.23
2018-04-10T02:38:25.406Z,6.57
2018-04-10T02:40:52.449Z,6.70
2018-04-10T02:43:19.498Z,7.07
2018-04-10T02:45:47.500Z,8.17
2018-04-10T02:48:14.515Z,7.47
2018-04-10T02:50:41.568Z,8.20
2018-04-10T02:53:08.511Z,7.50
2018-04-10T02:55:35.556Z,7.30
2018-04-10T02:58:02.612Z,7.43
2018-04-10T03:00:30.100Z,7.67
2018-04-10T03:02:57.111Z,8.20
2018-04-10T03:05:24.163Z,8.63
2018-04-10T03:07:51.213Z,8.97
2018-04-10T03:10:18.156Z,8.23
2018-04-10T03:12:45.209Z,7.93
2018-04-10T03:15:12.251Z,8.23
2018-04-10T03:17:39.203Z,9.13
2018-04-10T03:20:07.587Z,8.73
2018-04-10T03:22:34.626Z,9.43
2018-04-10T03:25:01.676Z,8.87
2018-04-10T03:27:28.728Z,9.20
2018-04-10T03:29:55.671Z,9.67
2018-04-10T03:32:22.723Z,9.63
2018-04-10T03:34:50.488Z,10.13
2018-04-10T03:37:17.531Z,10.50
2018-04-10T03:39:44.581Z,10.77
2018-04-10T03:42:11.635Z,10.63
2018-04-10T03:44:38.575Z,10.73
2018-04-10T03:47:05.629Z,10.93
2018-04-10T03:49:32.671Z,10.53
2018-04-10T03:51:59.675Z,10.60
2018-04-10T03:54:26.566Z,10.43
2018-04-10T03:56:53.456Z,10.47
2018-04-10T03:59:20.462Z,11.27
2018-04-10T04:01:47.505Z,10.53
2018-04-10T04:04:14.554Z,10.50
2018-04-10T04:06:41.606Z,11.37
2018-04-10T04:09:09.854Z,11.47
2018-04-10T04:11:36.831Z,11.67
2018-04-10T04:14:04.596Z,11.17
2018-04-10T04:16:37.783Z,11.33
2018-04-10T04:19:11.294Z,11.77
2018-04-10T04:21:44.112Z,11.00
2018-04-10T04:24:11.050Z,11.63
2018-04-10T04:26:38.169Z,11.80
2018-04-10T04:29:05.521Z,11.83
2018-04-10T04:31:32.567Z,11.40
2018-04-10T04:34:01.158Z,12.63
2018-04-10T04:36:29.326Z,12.10
2018-04-10T04:38:56.279Z,12.40
2018-04-10T04:41:23.322Z,11.93
2018-04-10T04:43:51.094Z,12.47
2018-04-10T04:46:18.237Z,13.13
2018-04-10T04:48:45.798Z,12.87
2018-04-10T04:51:12.846Z,13.33
2018-04-10T04:53:39.900Z,18.10
2018-04-10T04:56:07.252Z,19.30
2018-04-10T04:58:34.302Z,13.47
2018-04-10T05:01:02.275Z,12.40
2018-04-10T05:03:31.367Z,12.90
2018-04-10T05:05:58.420Z,13.33
2018-04-10T05:08:27.800Z,14.53
2018-04-10T05:10:54.968Z,14.53
2018-04-10T05:13:22.023Z,14.43
2018-04-10T05:15:49.077Z,13.10
2018-04-10T05:18:16.119Z,12.80
2018-04-10T05:20:43.169Z,12.70
2018-04-10T05:23:10.321Z,13.00
2018-04-10T05:25:38.182Z,13.10
2018-04-10T05:28:05.235Z,13.70
2018-04-10T05:30:32.791Z,14.10
2018-04-10T05:32:59.844Z,13.83
2018-04-10T05:35:26.893Z,13.60
2018-04-10T05:37:53.940Z,12.70
2018-04-10T05:40:20.993Z,14.80
2018-04-10T05:42:48.036Z,14.40
2018-04-10T05:45:14.987Z,13.27
2018-04-10T05:47:42.033Z,15.10
2018-04-10T05:50:10.144Z,15.30
2018-04-10T05:52:37.361Z,15.50
2018-04-10T05:55:04.401Z,15.90
2018-04-10T05:57:31.561Z,15.83
2018-04-10T05:59:58.602Z,15.30
2018-04-10T06:02:25.656Z,14.67
2018-04-10T06:04:54.037Z,15.37
2018-04-10T06:07:21.080Z,14.70
2018-04-10T06:09:48.128Z,15.27
2018-04-10T06:12:15.181Z,15.40
2018-04-10T06:14:42.224Z,16.13
2018-04-10T06:17:09.175Z,15.73
2018-04-10T06:19:36.164Z,15.70
2018-04-10T06:22:03.104Z,15.40
2018-04-10T06:24:31.243Z,14.17
2018-04-10T06:26:59.033Z,12.90
2018-04-10T06:29:26.057Z,15.87
2018-04-10T06:31:53.203Z,15.50
2018-04-10T06:34:21.278Z,14.83
2018-04-10T06:36:49.963Z,15.63
2018-04-10T06:39:17.012Z,16.60
2018-04-10T06:41:43.995Z,17.33
2018-04-10T06:44:11.524Z,16.23
2018-04-10T06:46:38.568Z,16.50
2018-04-10T06:49:05.558Z,15.20
2018-04-10T06:51:32.976Z,16.90
2018-04-10T06:54:00.942Z,15.37
2018-04-10T06:56:28.024Z,12.33
2018-04-10T06:58:56.315Z,13.70
2018-04-10T07:01:23.732Z,13.13
2018-04-10T07:03:50.882Z,11.53
2018-04-10T07:06:19.050Z,12.90
2018-04-10T07:08:46.611Z,15.23
2018-04-10T07:11:13.660Z,15.97
2018-04-10T07:13:40.715Z,14.13
2018-04-10T07:16:07.865Z,12.87
2018-04-10T07:18:34.908Z,13.70
2018-04-10T07:21:01.893Z,9.00
2018-04-10T07:23:28.901Z,4.37
2018-04-10T07:25:55.950Z,7.53
2018-04-10T07:28:24.127Z,8.97
2018-04-10T07:30:51.385Z,7.80
2018-04-10T07:33:19.153Z,7.80
2018-04-10T07:35:46.193Z,6.43
2018-04-10T07:38:14.164Z,3.40
2018-04-10T07:40:41.109Z,5.93
2018-04-10T07:43:08.098Z,4.00
2018-04-10T07:45:35.102Z,4.13
2018-04-10T07:48:02.987Z,6.43
2018-04-10T07:50:30.019Z,3.33
2018-04-10T07:52:56.972Z,9.97
2018-04-10T07:55:24.014Z,3.17
2018-04-10T07:57:50.965Z,4.00
2018-04-10T08:00:18.009Z,2.83
2018-04-10T08:02:45.057Z,8.90
2018-04-10T08:05:12.112Z,8.00
2018-04-10T08:07:39.155Z,5.23
2018-04-10T08:10:06.204Z,6.43
2018-04-10T08:12:33.151Z,6.00
2018-04-10T08:15:00.199Z,10.10
2018-04-10T08:17:27.290Z,8.90
2018-04-10T08:19:55.470Z,10.17
2018-04-10T08:22:23.316Z,11.47
2018-04-10T08:24:50.383Z,9.83
2018-04-10T08:27:18.152Z,6.47
2018-04-10T08:29:45.189Z,7.33
2018-04-10T08:32:13.066Z,5.67
2018-04-10T08:34:40.004Z,7.00
2018-04-10T08:37:07.057Z,8.50
2018-04-10T08:39:34.001Z,7.07
2018-04-10T08:42:01.763Z,4.17
2018-04-10T08:44:28.709Z,7.33
2018-04-10T08:46:55.662Z,6.50
2018-04-10T08:49:23.829Z,3.50
2018-04-10T08:51:52.311Z,7.77
2018-04-10T08:54:19.262Z,6.60
2018-04-10T08:56:46.307Z,4.30
2018-04-10T08:59:13.357Z,9.10
2018-04-10T09:01:40.413Z,4.60
2018-04-10T09:04:07.455Z,8.93
2018-04-10T09:06:34.500Z,7.90
2018-04-10T09:09:01.556Z,7.03
2018-04-10T09:11:28.540Z,9.53
2018-04-10T09:13:55.550Z,9.57
2018-04-10T09:16:22.591Z,3.67
2018-04-10T09:18:49.640Z,6.40
2018-04-10T09:21:16.630Z,7.20
2018-04-10T09:23:44.460Z,8.83
2018-04-10T09:28:44.741Z,8.20
2018-04-10T09:31:11.749Z,3.97
2018-04-10T09:33:38.900Z,9.67
2018-04-10T09:36:05.945Z,6.67
2018-04-10T09:38:32.993Z,9.83
2018-04-10T09:41:00.971Z,10.70
2018-04-10T09:43:28.217Z,8.07
2018-04-10T09:45:55.163Z,10.00
2018-04-10T09:48:22.212Z,9.70
2018-04-10T09:50:49.364Z,11.97
2018-04-10T09:53:16.418Z,12.43
2018-04-10T09:55:43.461Z,9.93
2018-04-10T09:58:11.123Z,4.57
2018-04-10T10:00:41.251Z,10.10
2018-04-10T10:03:08.293Z,17.10
2018-04-10T10:05:35.281Z,18.23
2018-04-10T10:08:02.800Z,12.20
2018-04-10T10:10:29.853Z,23.67
2018-04-10T10:12:56.911Z,18.67
2018-04-10T10:15:24.559Z,40.60
2018-04-10T10:17:51.613Z,36.33
2018-04-10T10:20:19.678Z,38.70
2018-04-10T10:22:46.729Z,35.40
2018-04-10T10:25:13.734Z,37.03
2018-04-10T10:27:41.544Z,34.60
2018-04-10T10:30:08.598Z,36.73
2018-04-10T10:32:36.564Z,38.17
2018-04-10T10:35:03.612Z,36.87
2018-04-10T10:37:30.863Z,42.47
2018-04-10T10:39:57.913Z,42.63
2018-04-10T10:42:24.965Z,36.80
2018-04-10T10:44:52.731Z,37.53
2018-04-10T10:47:19.775Z,24.23
2018-04-10T10:49:46.823Z,40.87
2018-04-10T10:52:14.799Z,34.80
2018-04-10T10:54:41.950Z,40.23
2018-04-10T10:57:09.749Z,36.87
2018-04-10T10:59:36.707Z,39.70
2018-04-10T11:02:03.807Z,30.43
2018-04-10T11:04:30.863Z,40.57
2018-04-10T11:06:57.905Z,37.77
2018-04-10T11:09:24.957Z,38.23
2018-04-10T11:11:52.211Z,37.90
2018-04-10T11:14:19.257Z,32.87
2018-04-10T11:16:46.408Z,36.50
2018-04-10T11:19:13.462Z,35.33
2018-04-10T11:21:43.069Z,19.67
2018-04-10T11:24:10.113Z,17.67
2018-04-10T11:26:37.160Z,39.83
2018-04-10T11:29:04.218Z,41.03
2018-04-10T11:31:31.259Z,38.63
2018-04-10T11:33:58.307Z,41.17
2018-04-10T11:36:25.361Z,27.60
2018-04-10T11:38:52.303Z,41.27
2018-04-10T11:41:19.359Z,41.33
2018-04-10T11:43:46.401Z,43.93
2018-04-10T11:46:13.352Z,43.57
2018-04-10T11:48:40.395Z,39.90
2018-04-10T11:51:07.444Z,42.13
2018-04-10T11:53:34.498Z,40.73
2018-04-10T11:56:01.484Z,41.17
2018-04-10T11:58:29.414Z,39.00
2018-04-10T12:00:56.457Z,39.20
2018-04-10T12:03:23.407Z,32.00
2018-04-10T12:05:50.451Z,39.57
2018-04-10T12:08:17.404Z,15.93
2018-04-10T12:10:45.406Z,32.53
2018-04-10T12:13:12.418Z,33.87
2018-04-10T12:15:39.470Z,30.87
2018-04-10T12:18:07.741Z,30.40
2018-04-10T12:20:34.893Z,15.47
2018-04-10T12:23:01.942Z,29.80
2018-04-10T12:25:28.934Z,32.10
2018-04-10T12:27:55.936Z,28.87
2018-04-10T12:30:23.753Z,26.40
2018-04-10T12:32:50.755Z,22.43
2018-04-10T12:35:17.798Z,23.20
2018-04-10T12:37:44.847Z,22.80
2018-04-10T12:40:11.902Z,22.90
2018-04-10T12:42:38.944Z,22.97
2018-04-10T12:45:05.945Z,23.53
2018-04-10T12:47:32.942Z,22.83
2018-04-10T12:49:59.991Z,19.13
2018-04-10T12:52:27.040Z,24.83
2018-04-10T12:54:53.982Z,16.57
2018-04-10T12:57:21.993Z,21.70
2018-04-10T12:59:49.001Z,18.27
2018-04-10T13:02:21.027Z,18.33
2018-04-10T13:04:48.940Z,11.80
2018-04-10T13:07:15.983Z,15.43
2018-04-10T13:09:43.032Z,17.80
2018-04-10T13:15:40.413Z,21.07
2018-04-10T13:18:07.460Z,20.57
2018-04-10T13:20:34.514Z,19.80
2018-04-10T13:23:01.558Z,18.00
2018-04-10T13:25:28.607Z,21.80
2018-04-10T13:27:55.757Z,19.93
2018-04-10T13:30:22.811Z,21.40
2018-04-10T13:32:53.745Z,18.10
2018-04-10T13:35:20.802Z,20.33
2018-04-10T13:37:47.843Z,20.57
2018-04-10T13:40:14.890Z,18.17
2018-04-10T13:42:41.946Z,18.57
2018-04-10T13:45:08.989Z,19.57
2018-04-10T13:47:36.039Z,18.77
2018-04-10T13:50:03.092Z,15.53
2018-04-10T13:52:30.135Z,16.73
2018-04-10T13:54:57.185Z,16.20
2018-04-10T13:57:24.239Z,13.73
2018-04-10T13:59:51.281Z,11.23
2018-04-10T14:02:19.355Z,16.37
2018-04-10T14:04:46.406Z,13.07
2018-04-10T14:07:14.479Z,12.60
2018-04-10T14:09:41.728Z,11.40
2018-04-10T14:12:08.779Z,12.03
2018-04-10T14:14:51.424Z,12.07
2018-04-10T14:17:18.541Z,9.10
2018-04-10T14:19:45.590Z,7.87
2018-04-10T14:22:12.647Z,5.37
2018-04-10T14:24:39.687Z,5.57
2018-04-10T14:27:06.737Z,6.23
2018-04-10T14:29:34.503Z,4.43
2018-04-10T14:32:01.555Z,5.23
2018-04-10T14:34:28.598Z,3.73
2018-04-10T14:36:55.691Z,4.80
2018-04-10T14:39:22.798Z,4.67
2018-04-10T14:41:50.891Z,4.50
2018-04-10T14:44:18.023Z,5.30
2018-04-10T14:46:45.077Z,4.20
2018-04-10T14:49:12.120Z,4.33
2018-04-10T14:51:39.117Z,4.77
2018-04-10T14:54:06.222Z,4.00
2018-04-10T14:56:33.265Z,4.10
2018-04-10T14:59:00.319Z,4.40
2018-04-10T15:01:27.675Z,4.20
2018-04-10T15:03:55.750Z,3.70
2018-04-10T15:06:22.789Z,4.00
2018-04-10T15:08:50.914Z,4.30
2018-04-10T15:11:18.014Z,4.77
2018-04-10T15:13:45.063Z,4.93
2018-04-10T15:16:12.423Z,5.17
2018-04-10T15:18:39.469Z,5.20
2018-04-10T15:21:06.517Z,5.03
2018-04-10T15:23:34.227Z,4.50
2018-04-10T15:26:01.227Z,3.80
2018-04-10T15:28:28.378Z,3.97
2018-04-10T15:30:56.043Z,4.17
2018-04-10T15:33:23.096Z,3.80
2018-04-10T15:35:50.139Z,3.43
2018-04-10T15:38:17.494Z,3.03
2018-04-10T15:40:44.548Z,3.40
2018-04-10T15:43:12.926Z,2.20
2018-04-10T15:45:41.712Z,2.50
2018-04-10T15:48:08.764Z,2.50
2018-04-10T15:50:36.014Z,2.47
2018-04-10T15:53:04.313Z,2.60
2018-04-10T15:55:32.717Z,2.50
2018-04-10T15:58:00.133Z,2.60
2018-04-10T16:00:27.334Z,2.63
2018-04-10T16:02:55.666Z,3.10
2018-04-10T16:05:22.708Z,3.30
2018-04-10T16:07:49.757Z,3.60
2018-04-10T16:10:17.485Z,3.77
2018-04-10T16:12:44.577Z,2.93
2018-04-10T16:15:12.542Z,3.30
2018-04-10T16:17:39.591Z,3.20
2018-04-10T16:20:06.689Z,3.87
2018-04-10T16:22:33.688Z,3.63
2018-04-10T16:25:01.145Z,4.07
2018-04-10T16:27:28.193Z,3.90
2018-04-10T16:29:55.251Z,3.90
2018-04-10T16:32:22.291Z,3.93
2018-04-10T16:34:50.925Z,3.30
2018-04-10T16:37:19.466Z,3.70
2018-04-10T16:39:46.616Z,4.10
2018-04-10T16:42:14.785Z,4.33
2018-04-10T16:44:42.294Z,4.40
2018-04-10T16:47:09.298Z,4.93
2018-04-10T16:49:36.341Z,5.63
2018-04-10T16:52:03.390Z,5.47
2018-04-10T16:54:31.063Z,5.10
2018-04-10T16:56:58.307Z,5.80
2018-04-10T16:59:25.362Z,5.57
2018-04-10T17:01:52.408Z,5.17
2018-04-10T17:04:20.374Z,5.50
2018-04-10T17:06:47.429Z,5.03
2018-04-10T17:09:15.506Z,4.90
2018-04-10T17:11:43.362Z,5.00
2018-04-10T17:14:10.418Z,4.97
2018-04-10T17:16:37.459Z,5.60
2018-04-10T17:19:04.509Z,5.50
2018-04-10T17:21:31.562Z,5.87
2018-04-10T17:23:58.915Z,4.90
2018-04-10T17:26:25.961Z,4.97
2018-04-10T17:28:53.522Z,4.80
2018-04-10T17:31:20.576Z,4.67
2018-04-10T17:33:48.669Z,4.57
2018-04-10T17:36:15.897Z,4.50
2018-04-10T17:38:43.048Z,4.90
2018-04-10T17:41:10.099Z,4.50
2018-04-10T17:43:37.350Z,4.97
2018-04-10T17:46:04.398Z,4.13
2018-04-10T17:48:31.452Z,4.40
2018-04-10T17:50:58.496Z,4.47
2018-04-10T17:53:25.523Z,3.40
2018-04-10T17:55:52.598Z,4.57
2018-04-10T17:58:19.641Z,4.13
2018-04-10T18:00:47.713Z,4.90
2018-04-10T18:03:14.863Z,4.43
2018-04-10T18:05:41.915Z,5.10
2018-04-10T18:08:10.811Z,5.50
2018-04-10T18:10:37.853Z,5.13
2018-04-10T18:13:04.902Z,5.60
2018-04-10T18:15:31.954Z,5.30
2018-04-10T18:17:58.999Z,5.00
2018-04-10T18:20:25.950Z,4.30
2018-04-10T18:22:53.876Z,4.00
2018-04-10T18:25:20.868Z,3.70
2018-04-10T18:27:48.939Z,4.33
2018-04-10T18:30:17.393Z,4.33
2018-04-10T18:32:55.976Z,4.33
2018-04-10T18:35:41.246Z,4.60
2018-04-10T18:38:08.571Z,4.33
2018-04-10T18:40:35.614Z,3.87
2018-04-10T18:43:02.566Z,4.63
2018-04-10T18:45:29.813Z,4.13
2018-04-10T18:47:58.096Z,3.73
2018-04-10T18:50:26.835Z,4.53
2018-04-10T18:52:54.856Z,4.67
2018-04-10T18:55:21.900Z,3.93
2018-04-10T18:57:48.893Z,4.20
2018-04-10T19:00:15.895Z,4.23
2018-04-10T19:02:42.915Z,4.30
2018-04-10T19:05:10.094Z,4.27
2018-04-10T19:07:37.082Z,4.20
2018-04-10T19:10:05.157Z,4.43
2018-04-10T19:12:32.161Z,3.80
2018-04-10T19:14:59.990Z,3.47
2018-04-10T19:17:28.210Z,3.30
2018-04-10T19:19:55.252Z,1.97
2018-04-10T19:22:23.325Z,3.47
2018-04-10T19:24:50.416Z,2.70
2018-04-10T19:27:17.363Z,3.07
2018-04-10T19:29:44.368Z,4.20
2018-04-10T19:32:11.421Z,4.77
2018-04-10T19:34:40.441Z,3.10
2018-04-10T19:40:07.378Z,4.30
2018-04-10T19:42:35.144Z,5.00
2018-04-10T19:45:02.608Z,4.63
2018-04-10T19:47:29.963Z,4.43
2018-04-10T19:49:57.007Z,4.63
2018-04-10T19:52:24.059Z,4.33
2018-04-10T19:54:51.109Z,4.90
2018-04-10T19:57:18.156Z,4.37
2018-04-10T19:59:45.202Z,4.90
2018-04-10T20:02:13.277Z,4.70
2018-04-10T20:04:40.330Z,4.97
2018-04-10T20:07:07.480Z,4.90
2018-04-10T20:09:34.521Z,4.90
2018-04-10T20:12:01.574Z,5.10
2018-04-10T20:14:29.072Z,6.03
2018-04-10T20:16:56.771Z,5.57
2018-04-10T20:19:24.049Z,5.80
2018-04-10T20:21:51.506Z,4.60
2018-04-10T20:24:18.862Z,5.47
2018-04-10T20:26:46.012Z,6.03
2018-04-10T20:29:13.110Z,7.00
2018-04-10T20:31:40.111Z,6.03
2018-04-10T20:34:08.129Z,6.67
2018-04-10T20:36:35.333Z,6.10
2018-04-10T20:39:02.483Z,5.60
2018-04-10T20:44:04.364Z,5.10
2018-04-10T20:46:33.261Z,5.07
2018-04-10T20:49:00.436Z,5.03
2018-04-10T20:51:27.453Z,5.13
2018-04-10T20:53:54.503Z,5.57
2018-04-10T20:56:21.864Z,5.10
2018-04-10T20:58:48.908Z,5.00
2018-04-10T21:01:15.957Z,5.40
2018-04-10T21:03:44.028Z,4.80
2018-04-10T21:06:12.003Z,4.90
2018-04-10T21:08:44.277Z,5.13
2018-04-10T21:11:11.421Z,5.10
2018-04-10T21:13:38.988Z,5.33
2018-04-10T21:16:06.139Z,5.27
2018-04-10T21:18:33.182Z,5.37
2018-04-10T21:21:00.232Z,5.27
2018-04-10T21:23:27.285Z,5.50
2018-04-10T21:25:54.327Z,5.87
2018-04-10T21:28:21.374Z,5.27
2018-04-10T21:30:48.431Z,5.50
2018-04-10T21:33:15.474Z,5.97
2018-04-10T21:35:42.521Z,6.03
2018-04-10T21:38:10.497Z,6.07
2018-04-10T21:40:37.746Z,5.40
2018-04-10T21:43:11.143Z,6.00
2018-04-10T21:45:38.192Z,5.97
2018-04-10T21:48:05.182Z,5.53
2018-04-10T21:50:32.235Z,5.97
2018-04-10T21:52:59.240Z,6.00
2018-04-10T21:55:26.282Z,5.30
2018-04-10T21:57:53.331Z,5.90
2018-04-10T22:00:20.499Z,6.27
2018-04-10T22:02:47.536Z,5.70
2018-04-10T22:05:16.628Z,5.33
2018-04-10T22:07:43.682Z,5.73
2018-04-10T22:10:10.832Z,5.80
2018-04-10T22:12:37.774Z,5.40
2018-04-10T22:15:04.828Z,5.90
2018-04-10T22:17:32.900Z,5.70
2018-04-10T22:19:59.944Z,5.47
2018-04-10T22:22:26.994Z,5.97
2018-04-10T22:24:54.045Z,5.63
2018-04-10T22:27:22.217Z,5.10
2018-04-10T22:29:49.268Z,5.80
2018-04-10T22:32:16.315Z,5.57
2018-04-10T22:34:45.277Z,5.60
2018-04-10T22:37:13.350Z,5.17
2018-04-10T22:39:40.399Z,5.80
2018-04-10T22:42:07.451Z,5.60
2018-04-10T22:44:34.498Z,5.63
2018-04-10T22:47:01.544Z,5.93
2018-04-10T22:49:28.597Z,5.67
2018-04-10T22:51:57.223Z,5.73
2018-04-10T22:54:25.761Z,5.90
2018-04-10T22:56:52.816Z,5.37
2018-04-10T22:59:19.861Z,5.77
2018-04-10T23:01:46.816Z,6.10
2018-04-10T23:04:13.856Z,5.63
2018-04-10T23:06:40.930Z,6.53
2018-04-10T23:09:08.987Z,6.00
2018-04-10T23:11:36.044Z,6.50
2018-04-10T23:14:03.092Z,5.73
2018-04-10T23:16:30.143Z,6.20
2018-04-10T23:18:57.201Z,6.20
2018-04-10T23:21:24.247Z,5.77
2018-04-10T23:23:51.297Z,5.53
2018-04-10T23:26:19.521Z,6.13
2018-04-10T23:28:46.627Z,5.37
2018-04-10T23:31:22.585Z,5.70
2018-04-10T23:33:50.255Z,5.50
2018-04-10T23:36:17.314Z,5.20
2018-04-10T23:38:45.373Z,5.80
2018-04-10T23:41:12.423Z,5.50
2018-04-10T23:43:39.479Z,5.43
2018-04-10T23:46:06.521Z,5.07
2018-04-10T23:48:33.570Z,5.50
2018-04-10T23:51:00.624Z,5.60
2018-04-10T23:53:27.613Z,5.43
2018-04-10T23:55:54.616Z,5.83
2018-04-10T23:58:21.658Z,5.27
